ホバート の空港の天気 - METARとTAF

ホバート国際空港 ( YMHB / HBA ) - オーストラリア タスマニア州、Cambridge
飛行場実況気象(Metar)
観測時間10/20 05:00 AEDT (10/19 18:00 UTC)
風向・風速北北西 6m/s
視程10km以上
天気現象
少しの雲 雲底高度 1520m
全天の4割程度の雲 雲底高度 6710m
気温17℃
湿度59%
気圧1003hPa
METARYMHB 191800Z 34011KT 9999 FEW050 SCT220 17/09 Q1003 RF00.0/000.2
過去の天気等 Google飛行場航空写真 Wunderground天気予報

過去48時間のMETAR

飛行場予報(TAF)
発表時間: 10/20 04:13 AEDT (10/19 17:13 UTC)
予報対象時間: 20日5時 AEDT ~ 21日5時 AEDT
風向・風速北北西 5m/s
視程10km以上
天気現象弱いしゅう雨
全天の8割程度の雲 雲底高度 3050m
20日9時 AEDT から
風向・風速西 8m/s
視程10km以上
全天の4割程度の雲 雲底高度 910m
20日18時 AEDT から
風向・風速西北西 6m/s
視程10km以上
少しの雲 雲底高度 1220m
20日23時 AEDT から
風向・風速北北西 4m/s
視程10km以上
なし
TAF YMHB 191713Z 1918/2018 34010KT 9999 -SHRA BKN100
FM192200 28015KT 9999 SCT030
FM200700 29012KT 9999 FEW040
FM201200 33008KT CAVOK